Airfield :
LOGIN :

Register | Disclaimer

   EN    FR    IT 

 










Legend :    VFR   Marginal VFR   IFR   Intensive IFR   Very Intensive IFR
Visi :
Ceiling :
>= 8 km
>= 3000ft
5 to 8 km
1000 to 3000 ft
1500m to 5 km
500 to 1000 ft
800 to 1500m
200 to 500 ft
< 800m
< 200 ft
Symbols :   Thunderstorms  Fog  Heavy snow  Heavy precipitations  Wind > 20 kt
SIGMETs :     Misc.  Thunderstorms  Icing  Turbulence  Mountain Waves  Volcanic Ashes






- Airport Elevation : 1830 ft


EBLB - Butgenbach Elsenborn

CURRENT METAR :
  • 280955Z AUTO 20006KT 8000 FEW004/// M01/M01 Q1017 BLU

EXPIRED METARs :
  • 280941Z AUTO 20006KT 7000 NCD M01/M02 Q1016 WHT
  • 280925Z AUTO 20005KT 9999 NCD M00/M02 Q1016 BLU
  • 280855Z AUTO 20004KT 9000 FEW012/// M01/M02 Q1017 BLU
  • 280843Z AUTO 22005KT 9000 FEW005/// SCT016/// M01/M02 Q1017 WHT
  • 280803Z AUTO 26003KT 8000 SCT005/// BKN018/// M01/M02 Q1016 YLO
  • 280755Z AUTO 25004KT 8000 FEW005/// BKN019/// M02/M02 Q1016 WHT
  • 280725Z AUTO 24003KT 8000 OVC004/// M02/M02 Q1016 YLO

Expired Forecast.



MET'MAP, your aeronautical weather chart ! - Copyright ORBIFLY December 2007 - Disclaimer

ORBIFLY MET'MAP TEAM :

Programming & Development : Alexandra Zaïnal
Concept & original design : Baudouin d'Aumeries
Assistance for programming : Marc-Olivier Méhu
Technical & hardware support : Manuel Goepfert

Contact : metmap@orbifly.com




SOURCES & CREDITS :

   NOAA